3G4 weather

Ashland County Airport
Ashland, Ohio, United States

Public forecast

Using degrees Fahrenheit for public forecast. Weather courtesy of forecast.io.

METAR (pilot weather report)

Closest report is Mansfield Lahm Regional Airport, 12.8 nm (23.8 km) WSW. Retrieved 2019/05/21 02:52 UTC (1 hour ago):

KMFD 210252Z AUTO 33009KT 10SM OVC030 11/06 A3008 RMK AO2 SLP186 T01060056 50004

TAF (pilot weather forecast)

Forecast is more than 12 hours old.

Closest forecast is Mansfield Lahm Regional Airport, 12.8 nm (23.8 km) WSW. Retrieved 2019/05/20 00:57 UTC (1 day ago):

TAF COR KMFD 202355Z 2100/2124 29012KT P6SM OVC025 FM210400 VRB04KT P6SM BKN025 FM211900 05006KT P6SM SCT060 BKN130